Airfield :
LOGIN :

Register | Disclaimer

   EN    FR    IT 

 










Legend :    VFR   Marginal VFR   IFR   Intensive IFR   Very Intensive IFR
Visi :
Ceiling :
>= 8 km
>= 3000ft
5 to 8 km
1000 to 3000 ft
1500m to 5 km
500 to 1000 ft
800 to 1500m
200 to 500 ft
< 800m
< 200 ft
Symbols :   Thunderstorms  Fog  Heavy snow  Heavy precipitations  Wind > 20 kt
SIGMETs :     Misc.  Thunderstorms  Icing  Turbulence  Mountain Waves  Volcanic Ashes







- Airport Elevation : 32 ft
- IATA code : LKZ


EGUL - RAF Lakenheath

CURRENT METAR :
  • 181756Z AUTO 09010KT 9999 CLR 17/06 A3025 RMK AO2 SLP247 T01740060 10208 20174 52008 $

EXPIRED METARs :
  • 181656Z 08012KT 9999 CLR 19/05 A3024 RMK AO2A SLP243 T01860051 $
  • 181556Z AUTO 11014KT 9999 CLR 19/05 A3023 RMK AO2 SLP240 T01920049 $

TAF TAF EGUL
Valid from the 18 at 12:00 until the 19 at 18:00 UTC


1812/1918 09010G15KT 9999 FEW050 QNH3024INS
BECMG 1817/1818 09009KT 9999 SKC QNH3029INS
BECMG 1900/1901 07006KT 8000 BR SKC QNH3032INS
BECMG 1907/1908 08009KT 9999 NSW FEW050 QNH3037INS
BECMG 1911/1912 09010KT 9999 SKC QNH3041INS TX20/1815Z TN08/1903Z
No reported NOTAMs for that airfield.



MET'MAP, your aeronautical weather chart ! - Copyright ORBIFLY December 2007 - Disclaimer

ORBIFLY MET'MAP TEAM :

Programming & Development : Alexandra Zaïnal
Concept & Development : Baudouin d'Aumeries
Co-Development & Prog : Marc-Olivier Méhu
Technical & hardware support : Manuel Goepfert

Contact : metmap@orbifly.com




SOURCES & CREDITS :

   NOAA